Time;durP1;ratioP1;P1;durP2;ratioP2;P2;SDS_P1;SDS_P2;PMS_P1;PMS_P2;Temp;Humidity;BMP_temperature;BMP_pressure;BME280_temperature;BME280_humidity;BME280_pressure;Samples;Min_cycle;Max_cycle;Signal;HPM_P1;HPM_P2
2022/06/08 00:02:21;;;;;;;;;;;;;;;;;;5050081;28;20355;-48
2022/06/08 00:04:47;;;;;;;;;;;;;;;;;;5088923;28;19912;-46
2022/06/08 00:07:13;;;;;;;;;;;;;;;;;;5090622;28;19904;-49
2022/06/08 00:09:40;;;;;;;;;;;;;;;;;;5090615;28;19904;-47
2022/06/08 00:12:06;;;;;;;;;;;;;;;;;;5070962;28;20435;-49
2022/06/08 00:14:32;;;;;;;;;;;;;;;;;;5069781;28;20011;-48
2022/06/08 00:16:58;;;;;;;;;;;;;;;;;;5067816;28;19905;-48
2022/06/08 00:19:24;;;;;;;;;;;;;;;;;;5066688;28;20446;-47
2022/06/08 00:21:51;;;;;;;;;;;;;;;;;;5066311;28;19905;-46
2022/06/08 00:24:19;;;;;;;;;;;;;;;;;;5047974;28;20465;-44
2022/06/08 00:26:45;;;;;;;;;;;;;;;;;;5049634;28;19995;-45
2022/06/08 00:29:11;;;;;;;;;;;;;;;;;;5048321;28;19909;-47
2022/06/08 00:31:38;;;;;;;;;;;;;;;;;;5048108;28;19909;-48
2022/06/08 00:34:05;;;;;;;;;;;;;;;;;;5047606;28;19919;-47
2022/06/08 00:36:32;;;;;;;;;;;;;;;;;;5048271;28;19967;-47
2022/06/08 00:38:58;;;;;;;;;;;;;;;;;;5048419;28;19905;-47
2022/06/08 00:41:25;;;;;;;;;;;;;;;;;;5048402;28;19916;-45
2022/06/08 00:43:51;;;;;;;;;;;;;;;;;;5045660;28;20284;-46
2022/06/08 00:46:17;;;;;;;;;;;;;;;;;;5047002;28;19916;-47
2022/06/08 00:48:43;;;;;;;;;;;;;;;;;;5048400;28;19901;-46
2022/06/08 00:51:09;;;;;;;;;;;;;;;;;;5047385;28;19951;-47
2022/06/08 00:53:35;;;;;;;;;;;;;;;;;;5047625;28;19905;-47
2022/06/08 00:56:00;;;;;;;;;;;;;;;;;;5047183;28;19913;-49
2022/06/08 00:58:26;;;;;;;;;;;;;;;;;;5047698;28;20050;-46
2022/06/08 01:00:52;;;;;;;;;;;;;;;;;;5048067;28;20384;-46
2022/06/08 01:03:18;;;;;;;;;;;;;;;;;;5046628;28;19909;-48
2022/06/08 01:05:46;;;;;;;;;;;;;;;;;;5067227;28;19919;-48
2022/06/08 01:08:12;;;;;;;;;;;;;;;;;;5067767;28;19915;-46
2022/06/08 01:10:37;;;;;;;;;;;;;;;;;;5060189;28;19913;-48
2022/06/08 01:13:05;;;;;;;;;;;;;;;;;;5047239;28;20698;-49
2022/06/08 01:15:30;;;;;;;;;;;;;;;;;;5047125;28;20292;-47
2022/06/08 01:17:56;;;;;;;;;;;;;;;;;;5047029;28;19905;-45
2022/06/08 01:20:22;;;;;;;;;;;;;;;;;;5046958;28;19908;-45
2022/06/08 01:22:48;;;;;;;;;;;;;;;;;;5047063;28;19915;-49
2022/06/08 01:25:15;;;;;;;;;;;;;;;;;;5047379;28;19916;-46
2022/06/08 01:27:41;;;;;;;;;;;;;;;;;;5047534;28;20003;-48
2022/06/08 01:30:08;;;;;;;;;;;;;;;;;;5052177;28;19995;-47
2022/06/08 01:32:34;;;;;;;;;;;;;;;;;;5066522;28;19958;-49
2022/06/08 01:35:00;;;;;;;;;;;;;;;;;;5066812;28;19904;-46
2022/06/08 01:37:26;;;;;;;;;;;;;;;;;;5066650;28;19904;-47
2022/06/08 01:39:52;;;;;;;;;;;;;;;;;;5066733;28;19908;-46
2022/06/08 01:42:18;;;;;;;;;;;;;;;;;;5066117;28;19908;-49
2022/06/08 01:45:28;;;;;;;;;;;;;;;;;;5062294;28;20427;-46
2022/06/08 01:47:29;;;;;;;;;;;;;;;;;;5046521;28;19970;-45
2022/06/08 01:49:55;;;;;;;;;;;;;;;;;;5046688;28;20391;-48
2022/06/08 01:52:22;;;;;;;;;;;;;;;;;;5045766;28;20296;-47
2022/06/08 01:54:48;;;;;;;;;;;;;;;;;;5046650;28;20303;-48
2022/06/08 01:57:15;;;;;;;;;;;;;;;;;;5046505;28;19923;-46
2022/06/08 01:59:42;;;;;;;;;;;;;;;;;;5046717;28;19919;-45
2022/06/08 02:02:08;;;;;;;;;;;;;;;;;;5045993;28;19908;-46
2022/06/08 02:04:34;;;;;;;;;;;;;;;;;;5046238;28;20014;-47
2022/06/08 02:07:00;;;;;;;;;;;;;;;;;;5046240;28;19909;-45
2022/06/08 02:09:27;;;;;;;;;;;;;;;;;;5045817;28;19904;-45
2022/06/08 02:11:53;;;;;;;;;;;;;;;;;;5045703;28;19960;-47
2022/06/08 02:14:20;;;;;;;;;;;;;;;;;;5045969;28;19905;-46
2022/06/08 02:16:47;;;;;;;;;;;;;;;;;;5046297;28;19905;-45
2022/06/08 02:19:13;;;;;;;;;;;;;;;;;;5047322;28;19921;-47
2022/06/08 02:21:42;;;;;;;;;;;;;;;;;;5045444;28;20407;-45
2022/06/08 02:24:07;;;;;;;;;;;;;;;;;;5045673;28;20082;-48
2022/06/08 02:26:33;;;;;;;;;;;;;;;;;;5062301;28;20002;-49
2022/06/08 02:28:59;;;;;;;;;;;;;;;;;;5066129;28;19905;-45
2022/06/08 02:31:26;;;;;;;;;;;;;;;;;;5065600;28;19911;-46
2022/06/08 02:36:38;;;;;;;;;;;;;;;;;;5065549;28;19915;-48
2022/06/08 02:39:05;;;;;;;;;;;;;;;;;;5065616;28;19943;-44
2022/06/08 02:41:32;;;;;;;;;;;;;;;;;;5064753;28;19908;-46
2022/06/08 02:43:59;;;;;;;;;;;;;;;;;;5065623;28;20593;-47
2022/06/08 02:46:24;;;;;;;;;;;;;;;;;;5065216;28;19916;-46
2022/06/08 02:48:50;;;;;;;;;;;;;;;;;;5065455;28;19908;-45
2022/06/08 02:51:16;;;;;;;;;;;;;;;;;;5065261;28;20453;-45
2022/06/08 02:53:42;;;;;;;;;;;;;;;;;;5061028;28;19909;-45
2022/06/08 02:56:08;;;;;;;;;;;;;;;;;;5045135;28;19916;-48
2022/06/08 02:58:34;;;;;;;;;;;;;;;;;;5045227;28;19920;-47
2022/06/08 03:01:01;;;;;;;;;;;;;;;;;;5045251;28;19912;-46
2022/06/08 03:03:31;;;;;;;;;;;;;;;;;;5044785;28;19909;-46
2022/06/08 03:05:57;;;;;;;;;;;;;;;;;;5045419;28;20042;-46
2022/06/08 03:08:23;;;;;;;;;;;;;;;;;;5044226;28;19999;-48
2022/06/08 03:10:49;;;;;;;;;;;;;;;;;;5045132;28;19919;-46
2022/06/08 03:13:15;;;;;;;;;;;;;;;;;;5045423;28;19909;-44
2022/06/08 03:15:40;;;;;;;;;;;;;;;;;;5045056;28;19909;-46
2022/06/08 03:18:07;;;;;;;;;;;;;;;;;;5045624;28;19908;-47
2022/06/08 03:20:33;;;;;;;;;;;;;;;;;;5065223;28;20290;-49
2022/06/08 03:22:59;;;;;;;;;;;;;;;;;;5064077;28;19916;-47
2022/06/08 03:25:25;;;;;;;;;;;;;;;;;;5064966;28;19957;-48
2022/06/08 03:27:51;;;;;;;;;;;;;;;;;;5065000;28;19905;-48
2022/06/08 03:30:18;;;;;;;;;;;;;;;;;;5064738;28;19904;-46
2022/06/08 03:32:45;;;;;;;;;;;;;;;;;;5065890;28;19951;-46
2022/06/08 03:35:11;;;;;;;;;;;;;;;;;;5065040;28;19915;-45
2022/06/08 03:37:38;;;;;;;;;;;;;;;;;;5051696;28;19912;-48
2022/06/08 03:40:04;;;;;;;;;;;;;;;;;;5043555;28;20597;-45
2022/06/08 03:42:30;;;;;;;;;;;;;;;;;;5044784;28;19955;-47
2022/06/08 03:44:56;;;;;;;;;;;;;;;;;;5043597;28;20378;-47
2022/06/08 03:47:23;;;;;;;;;;;;;;;;;;5044638;28;19905;-48
2022/06/08 03:49:49;;;;;;;;;;;;;;;;;;5046059;28;19939;-48
2022/06/08 03:52:15;;;;;;;;;;;;;;;;;;5045184;28;19913;-45
2022/06/08 03:54:41;;;;;;;;;;;;;;;;;;5045201;28;19916;-46
2022/06/08 03:57:08;;;;;;;;;;;;;;;;;;5044463;28;19955;-47
2022/06/08 03:59:34;;;;;;;;;;;;;;;;;;5045145;28;20312;-48
2022/06/08 04:01:59;;;;;;;;;;;;;;;;;;5044463;28;19911;-44
2022/06/08 04:04:26;;;;;;;;;;;;;;;;;;5054315;28;20334;-48
2022/06/08 04:06:54;;;;;;;;;;;;;;;;;;5064923;28;19905;-47
2022/06/08 04:09:19;;;;;;;;;;;;;;;;;;5064500;28;20402;-48
2022/06/08 04:11:46;;;;;;;;;;;;;;;;;;5065241;28;19904;-45
2022/06/08 04:14:12;;;;;;;;;;;;;;;;;;5064925;28;19905;-49
2022/06/08 04:16:37;;;;;;;;;;;;;;;;;;5064593;28;19905;-46
2022/06/08 04:19:03;;;;;;;;;;;;;;;;;;5059808;28;20388;-45
2022/06/08 04:21:29;;;;;;;;;;;;;;;;;;5048065;28;19920;-47
2022/06/08 04:23:55;;;;;;;;;;;;;;;;;;5067010;28;19920;-48
2022/06/08 04:26:21;;;;;;;;;;;;;;;;;;5067922;28;19912;-46
2022/06/08 04:28:47;;;;;;;;;;;;;;;;;;5068184;28;20363;-49
2022/06/08 04:31:14;;;;;;;;;;;;;;;;;;5068301;28;19911;-49
2022/06/08 04:33:40;;;;;;;;;;;;;;;;;;5068317;28;19949;-46
2022/06/08 04:36:06;;;;;;;;;;;;;;;;;;5066294;28;19999;-47
2022/06/08 04:38:33;;;;;;;;;;;;;;;;;;5068022;28;19908;-46
2022/06/08 04:40:59;;;;;;;;;;;;;;;;;;5067976;28;19934;-44
2022/06/08 04:43:25;;;;;;;;;;;;;;;;;;5067453;28;19916;-46
2022/06/08 04:45:51;;;;;;;;;;;;;;;;;;5067833;28;19932;-45
2022/06/08 04:48:19;;;;;;;;;;;;;;;;;;5067760;28;19943;-48
2022/06/08 04:50:45;;;;;;;;;;;;;;;;;;5067922;28;19918;-47
2022/06/08 04:53:11;;;;;;;;;;;;;;;;;;5067205;28;19908;-46
2022/06/08 04:55:38;;;;;;;;;;;;;;;;;;5067493;28;19912;-48
2022/06/08 04:58:05;;;;;;;;;;;;;;;;;;5067411;28;19969;-46
2022/06/08 05:00:31;;;;;;;;;;;;;;;;;;5067419;28;19908;-46
2022/06/08 05:02:57;;;;;;;;;;;;;;;;;;5066784;28;19915;-48
2022/06/08 05:05:23;;;;;;;;;;;;;;;;;;5067234;28;19905;-48
2022/06/08 05:07:50;;;;;;;;;;;;;;;;;;5067901;28;19908;-47
2022/06/08 05:10:17;;;;;;;;;;;;;;;;;;5067428;28;19936;-44
2022/06/08 05:12:43;;;;;;;;;;;;;;;;;;5066579;28;20358;-48
2022/06/08 05:15:09;;;;;;;;;;;;;;;;;;5066833;28;19917;-46
2022/06/08 05:17:36;;;;;;;;;;;;;;;;;;5067248;28;19978;-47
2022/06/08 05:20:01;;;;;;;;;;;;;;;;;;5059685;28;20212;-46
2022/06/08 05:22:27;;;;;;;;;;;;;;;;;;5066858;28;19966;-49
2022/06/08 05:24:54;;;;;;;;;;;;;;;;;;5067028;28;20307;-48
2022/06/08 05:27:20;;;;;;;;;;;;;;;;;;5067032;28;19908;-47
2022/06/08 05:29:45;;;;;;;;;;;;;;;;;;5067265;28;20019;-44
2022/06/08 05:32:11;;;;;;;;;;;;;;;;;;5066924;28;20109;-45
2022/06/08 05:34:37;;;;;;;;;;;;;;;;;;5055105;28;19951;-45
2022/06/08 05:37:03;;;;;;;;;;;;;;;;;;5046942;28;19908;-45
2022/06/08 05:39:30;;;;;;;;;;;;;;;;;;5046810;28;19909;-49
2022/06/08 05:41:56;;;;;;;;;;;;;;;;;;5046699;28;19912;-46
2022/06/08 05:44:22;;;;;;;;;;;;;;;;;;5046252;28;19912;-46
2022/06/08 05:46:48;;;;;;;;;;;;;;;;;;5058492;28;19974;-45
2022/06/08 05:49:14;;;;;;;;;;;;;;;;;;5067477;28;20026;-48
2022/06/08 05:51:40;;;;;;;;;;;;;;;;;;5065566;28;19908;-49
2022/06/08 05:54:07;;;;;;;;;;;;;;;;;;5066262;28;19946;-48
2022/06/08 05:56:32;;;;;;;;;;;;;;;;;;5066759;28;19913;-47
2022/06/08 05:58:58;;;;;;;;;;;;;;;;;;5066407;28;19904;-45
2022/06/08 06:01:24;;;;;;;;;;;;;;;;;;5065966;28;19912;-46
2022/06/08 06:03:50;;;;;;;;;;;;;;;;;;5065624;28;19923;-46
2022/06/08 06:06:16;;;;;;;;;;;;;;;;;;5065943;28;19904;-45
2022/06/08 06:08:45;;;;;;;;;;;;;;;;;;5066995;28;19911;-47
2022/06/08 06:11:13;;;;;;;;;;;;;;;;;;5066403;28;20196;-46
2022/06/08 06:13:38;;;;;;;;;;;;;;;;;;5065924;28;19905;-45
2022/06/08 06:16:04;;;;;;;;;;;;;;;;;;5065688;28;19919;-48
2022/06/08 06:18:30;;;;;;;;;;;;;;;;;;5066005;28;19939;-45
2022/06/08 06:20:56;;;;;;;;;;;;;;;;;;5065875;28;19904;-44
2022/06/08 06:23:25;;;;;;;;;;;;;;;;;;5065623;28;19928;-45
2022/06/08 06:25:51;;;;;;;;;;;;;;;;;;5065147;28;19977;-47
2022/06/08 06:28:16;;;;;;;;;;;;;;;;;;5065437;28;20367;-45
2022/06/08 06:30:42;;;;;;;;;;;;;;;;;;5066538;28;20007;-47
2022/06/08 06:33:08;;;;;;;;;;;;;;;;;;5068034;28;20618;-46
2022/06/08 06:35:34;;;;;;;;;;;;;;;;;;5067068;28;19918;-45
2022/06/08 06:38:00;;;;;;;;;;;;;;;;;;5065112;28;19913;-45
2022/06/08 06:40:27;;;;;;;;;;;;;;;;;;5066366;28;19904;-45
2022/06/08 06:42:53;;;;;;;;;;;;;;;;;;5066531;28;19908;-44
2022/06/08 06:45:19;;;;;;;;;;;;;;;;;;5064273;28;19915;-45
2022/06/08 06:47:45;;;;;;;;;;;;;;;;;;5067543;28;20044;-45
2022/06/08 06:50:11;;;;;;;;;;;;;;;;;;5067378;28;19911;-46
2022/06/08 06:52:37;;;;;;;;;;;;;;;;;;5060064;28;20305;-46
2022/06/08 06:55:03;;;;;;;;;;;;;;;;;;5051070;28;19919;-45
2022/06/08 06:57:29;;;;;;;;;;;;;;;;;;5046585;28;19991;-45
2022/06/08 06:59:55;;;;;;;;;;;;;;;;;;5060405;28;19912;-44
2022/06/08 07:02:21;;;;;;;;;;;;;;;;;;5075441;28;19999;-45
2022/06/08 07:04:47;;;;;;;;;;;;;;;;;;5066667;28;19908;-46
2022/06/08 07:07:13;;;;;;;;;;;;;;;;;;5061046;28;19982;-48
2022/06/08 07:09:40;;;;;;;;;;;;;;;;;;5046926;28;19904;-48
2022/06/08 07:12:06;;;;;;;;;;;;;;;;;;5046130;28;20829;-47
2022/06/08 07:14:31;;;;;;;;;;;;;;;;;;5058186;28;19931;-45
2022/06/08 07:16:57;;;;;;;;;;;;;;;;;;5083513;28;19908;-47
2022/06/08 07:19:23;;;;;;;;;;;;;;;;;;5086600;28;19904;-47
2022/06/08 07:21:49;;;;;;;;;;;;;;;;;;5078114;28;20061;-48
2022/06/08 07:24:15;;;;;;;;;;;;;;;;;;5067384;28;19916;-46
2022/06/08 07:26:41;;;;;;;;;;;;;;;;;;5067218;28;19908;-45
2022/06/08 07:29:07;;;;;;;;;;;;;;;;;;5066550;28;19909;-48
2022/06/08 07:31:33;;;;;;;;;;;;;;;;;;5066570;28;19915;-45
2022/06/08 07:34:00;;;;;;;;;;;;;;;;;;5072797;28;19908;-46
2022/06/08 07:36:26;;;;;;;;;;;;;;;;;;5086427;28;19908;-48
2022/06/08 07:38:51;;;;;;;;;;;;;;;;;;5065727;28;19909;-48
2022/06/08 07:41:17;;;;;;;;;;;;;;;;;;5072866;28;20362;-45
2022/06/08 07:43:43;;;;;;;;;;;;;;;;;;5087051;28;19931;-45
2022/06/08 07:46:09;;;;;;;;;;;;;;;;;;5072226;28;19909;-47
2022/06/08 07:51:20;;;;;;;;;;;;;;;;;;5064591;28;19939;-47
2022/06/08 07:53:46;;;;;;;;;;;;;;;;;;5059813;28;20375;-45
2022/06/08 07:56:12;;;;;;;;;;;;;;;;;;5072571;28;19954;-46
2022/06/08 07:58:38;;;;;;;;;;;;;;;;;;5068285;28;19944;-47
2022/06/08 08:01:04;;;;;;;;;;;;;;;;;;5077815;28;19914;-44
2022/06/08 08:03:30;;;;;;;;;;;;;;;;;;5074885;28;19977;-47
2022/06/08 08:05:56;;;;;;;;;;;;;;;;;;5071238;28;19912;-44
2022/06/08 08:08:22;;;;;;;;;;;;;;;;;;5070316;28;19904;-47
2022/06/08 08:10:47;;;;;;;;;;;;;;;;;;5058604;28;19915;-47
2022/06/08 08:13:13;;;;;;;;;;;;;;;;;;5055147;28;19916;-45
2022/06/08 08:15:39;;;;;;;;;;;;;;;;;;5066148;28;19974;-48
2022/06/08 08:18:05;;;;;;;;;;;;;;;;;;5088736;28;20003;-44
2022/06/08 08:20:33;;;;;;;;;;;;;;;;;;5090360;28;19908;-47
2022/06/08 08:22:59;;;;;;;;;;;;;;;;;;5074576;28;20362;-47
2022/06/08 08:25:25;;;;;;;;;;;;;;;;;;5069286;28;20372;-49
2022/06/08 08:27:52;;;;;;;;;;;;;;;;;;5081531;28;19919;-47
2022/06/08 08:30:18;;;;;;;;;;;;;;;;;;5089470;28;19943;-45
2022/06/08 08:32:45;;;;;;;;;;;;;;;;;;5071802;28;20382;-46
2022/06/08 08:35:11;;;;;;;;;;;;;;;;;;5069491;28;19957;-47
2022/06/08 08:37:37;;;;;;;;;;;;;;;;;;5069388;28;20341;-48
2022/06/08 08:40:03;;;;;;;;;;;;;;;;;;5069205;28;19904;-45
2022/06/08 08:42:31;;;;;;;;;;;;;;;;;;5068847;28;20155;-47
2022/06/08 08:44:58;;;;;;;;;;;;;;;;;;5069231;28;20410;-46
2022/06/08 08:47:24;;;;;;;;;;;;;;;;;;5073063;28;19923;-45
2022/06/08 08:49:50;;;;;;;;;;;;;;;;;;5069227;28;19908;-45
2022/06/08 08:52:16;;;;;;;;;;;;;;;;;;5069460;28;20358;-44
2022/06/08 08:54:42;;;;;;;;;;;;;;;;;;5069429;28;19912;-45
2022/06/08 08:57:08;;;;;;;;;;;;;;;;;;5064706;28;19912;-45
2022/06/08 08:59:34;;;;;;;;;;;;;;;;;;5065802;28;20346;-48
2022/06/08 09:02:01;;;;;;;;;;;;;;;;;;5068712;28;19905;-46
2022/06/08 09:04:27;;;;;;;;;;;;;;;;;;5065858;28;20459;-47
2022/06/08 09:06:53;;;;;;;;;;;;;;;;;;5089623;28;19904;-47
2022/06/08 09:09:19;;;;;;;;;;;;;;;;;;5088842;28;19904;-47
2022/06/08 09:11:45;;;;;;;;;;;;;;;;;;5072343;28;19908;-44
2022/06/08 09:14:11;;;;;;;;;;;;;;;;;;5089845;28;19966;-49
2022/06/08 09:16:38;;;;;;;;;;;;;;;;;;5090396;28;19908;-48
2022/06/08 09:19:04;;;;;;;;;;;;;;;;;;5089717;28;19912;-44
2022/06/08 09:21:30;;;;;;;;;;;;;;;;;;5087105;28;19912;-45
2022/06/08 09:23:56;;;;;;;;;;;;;;;;;;5069941;28;19908;-48
2022/06/08 09:26:21;;;;;;;;;;;;;;;;;;5069530;28;19915;-46
2022/06/08 09:28:47;;;;;;;;;;;;;;;;;;5069624;28;19948;-49
2022/06/08 09:31:13;;;;;;;;;;;;;;;;;;5070201;28;19908;-49
2022/06/08 09:33:39;;;;;;;;;;;;;;;;;;5077803;28;19955;-47
2022/06/08 09:36:05;;;;;;;;;;;;;;;;;;5069146;28;19911;-49
2022/06/08 09:38:31;;;;;;;;;;;;;;;;;;5069575;28;20346;-45
2022/06/08 09:40:57;;;;;;;;;;;;;;;;;;5083862;28;19908;-47
2022/06/08 09:43:23;;;;;;;;;;;;;;;;;;5088793;28;19930;-46
2022/06/08 09:45:49;;;;;;;;;;;;;;;;;;5084172;28;19910;-46
2022/06/08 09:53:44;;;;;;;;;;;;;;;;;;5089718;28;19961;-50
2022/06/08 09:56:10;;;;;;;;;;;;;;;;;;5076233;28;20333;-50
2022/06/08 09:58:36;;;;;;;;;;;;;;;;;;5066171;28;19912;-48
2022/06/08 10:01:03;;;;;;;;;;;;;;;;;;5056235;28;19913;-47
2022/06/08 10:03:29;;;;;;;;;;;;;;;;;;5070906;28;19923;-47
2022/06/08 10:05:56;;;;;;;;;;;;;;;;;;5064415;28;19904;-47
2022/06/08 10:08:22;;;;;;;;;;;;;;;;;;5083946;28;19912;-49
2022/06/08 10:10:48;;;;;;;;;;;;;;;;;;5061397;28;20344;-47
2022/06/08 10:13:16;;;;;;;;;;;;;;;;;;5064916;28;19954;-50
2022/06/08 10:15:42;;;;;;;;;;;;;;;;;;5070912;28;19926;-48
2022/06/08 10:18:08;;;;;;;;;;;;;;;;;;5066920;28;19905;-47
2022/06/08 10:20:34;;;;;;;;;;;;;;;;;;5066965;28;20326;-49
2022/06/08 10:23:01;;;;;;;;;;;;;;;;;;5066836;28;19905;-47
2022/06/08 10:25:28;;;;;;;;;;;;;;;;;;5066936;28;19912;-48
2022/06/08 10:27:54;;;;;;;;;;;;;;;;;;5067047;28;19908;-46
2022/06/08 10:30:20;;;;;;;;;;;;;;;;;;5067077;28;20387;-45
2022/06/08 10:32:46;;;;;;;;;;;;;;;;;;5067563;28;19909;-49
2022/06/08 10:35:12;;;;;;;;;;;;;;;;;;5067136;28;19912;-48
2022/06/08 10:37:39;;;;;;;;;;;;;;;;;;5067393;28;19927;-49
2022/06/08 10:40:05;;;;;;;;;;;;;;;;;;5079024;28;19908;-50
2022/06/08 10:42:40;;;;;;;;;;;;;;;;;;5046827;28;19912;-46
2022/06/08 10:45:07;;;;;;;;;;;;;;;;;;5054468;28;20710;-46
2022/06/08 10:47:33;;;;;;;;;;;;;;;;;;5066702;28;19958;-49
2022/06/08 10:49:59;;;;;;;;;;;;;;;;;;5066607;28;19904;-48
2022/06/08 10:52:25;;;;;;;;;;;;;;;;;;5066419;28;19995;-49
2022/06/08 10:54:54;;;;;;;;;;;;;;;;;;5066502;28;19994;-49
2022/06/08 10:57:21;;;;;;;;;;;;;;;;;;5065743;28;19911;-50
2022/06/08 10:59:47;;;;;;;;;;;;;;;;;;5060083;28;20657;-45
2022/06/08 11:02:16;;;;;;;;;;;;;;;;;;5070344;28;20338;-47
2022/06/08 11:04:43;;;;;;;;;;;;;;;;;;5067895;28;20346;-49
2022/06/08 11:07:10;;;;;;;;;;;;;;;;;;5066307;28;19904;-47
2022/06/08 11:09:36;;;;;;;;;;;;;;;;;;5072204;28;19912;-48
2022/06/08 11:12:04;;;;;;;;;;;;;;;;;;5081138;28;19934;-49
2022/06/08 11:14:30;;;;;;;;;;;;;;;;;;5088015;28;20006;-49
2022/06/08 11:16:56;;;;;;;;;;;;;;;;;;5087708;28;19998;-48
2022/06/08 11:19:23;;;;;;;;;;;;;;;;;;5086421;28;19912;-49
2022/06/08 11:21:49;;;;;;;;;;;;;;;;;;5081100;28;19908;-46
2022/06/08 11:24:15;;;;;;;;;;;;;;;;;;5066849;28;20341;-47
2022/06/08 11:26:40;;;;;;;;;;;;;;;;;;5066745;28;19904;-49
2022/06/08 11:29:07;;;;;;;;;;;;;;;;;;5072547;28;20010;-47
2022/06/08 11:31:33;;;;;;;;;;;;;;;;;;5086408;28;19911;-46
2022/06/08 11:33:59;;;;;;;;;;;;;;;;;;5078872;28;19904;-46
2022/06/08 11:36:25;;;;;;;;;;;;;;;;;;5064537;28;19905;-45
2022/06/08 11:38:51;;;;;;;;;;;;;;;;;;5065575;28;19905;-46
2022/06/08 11:41:17;;;;;;;;;;;;;;;;;;5071130;28;19959;-49
2022/06/08 11:43:43;;;;;;;;;;;;;;;;;;5086533;28;19912;-46
2022/06/08 11:46:10;;;;;;;;;;;;;;;;;;5077808;28;19908;-46
2022/06/08 11:48:38;;;;;;;;;;;;;;;;;;5067332;28;19911;-49
2022/06/08 11:51:04;;;;;;;;;;;;;;;;;;5065917;28;19936;-50
2022/06/08 11:53:30;;;;;;;;;;;;;;;;;;5067683;28;19908;-46
2022/06/08 11:55:56;;;;;;;;;;;;;;;;;;5066877;28;19913;-50
2022/06/08 11:58:22;;;;;;;;;;;;;;;;;;5066885;28;19905;-49
2022/06/08 12:00:49;;;;;;;;;;;;;;;;;;5062621;28;19917;-50
2022/06/08 12:03:15;;;;;;;;;;;;;;;;;;5061549;28;19918;-50
2022/06/08 12:05:41;;;;;;;;;;;;;;;;;;5053030;28;19909;-50
2022/06/08 12:08:09;;;;;;;;;;;;;;;;;;5047098;28;20572;-47
2022/06/08 12:10:35;;;;;;;;;;;;;;;;;;5058085;28;20260;-47
2022/06/08 12:13:01;;;;;;;;;;;;;;;;;;5067305;28;19919;-49
2022/06/08 12:15:27;;;;;;;;;;;;;;;;;;5071822;28;19912;-47
2022/06/08 12:17:53;;;;;;;;;;;;;;;;;;5068090;28;19912;-49
2022/06/08 12:20:19;;;;;;;;;;;;;;;;;;5066835;28;19998;-48
2022/06/08 12:22:45;;;;;;;;;;;;;;;;;;5067377;28;19927;-48
2022/06/08 12:25:13;;;;;;;;;;;;;;;;;;5067043;28;19917;-48
2022/06/08 12:27:39;;;;;;;;;;;;;;;;;;5067059;28;19958;-50
2022/06/08 12:30:05;;;;;;;;;;;;;;;;;;5049486;28;20380;-50
2022/06/08 12:32:31;;;;;;;;;;;;;;;;;;5046740;28;19904;-48
2022/06/08 12:34:57;;;;;;;;;;;;;;;;;;5062145;28;19927;-48
2022/06/08 12:37:23;;;;;;;;;;;;;;;;;;5066768;28;20272;-48
2022/06/08 12:39:49;;;;;;;;;;;;;;;;;;5066893;28;19915;-49
2022/06/08 12:42:15;;;;;;;;;;;;;;;;;;5070381;28;19908;-48
2022/06/08 12:44:41;;;;;;;;;;;;;;;;;;5068456;28;19922;-50
2022/06/08 12:47:07;;;;;;;;;;;;;;;;;;5069749;28;19927;-50
2022/06/08 12:49:32;;;;;;;;;;;;;;;;;;5072822;28;19982;-51
2022/06/08 12:51:59;;;;;;;;;;;;;;;;;;5060845;28;19912;-49
2022/06/08 12:54:25;;;;;;;;;;;;;;;;;;5050525;28;19909;-51
2022/06/08 12:56:51;;;;;;;;;;;;;;;;;;5067210;28;20378;-49
2022/06/08 12:59:17;;;;;;;;;;;;;;;;;;5068323;28;20279;-50
2022/06/08 13:01:44;;;;;;;;;;;;;;;;;;5063217;28;20375;-51
2022/06/08 13:04:10;;;;;;;;;;;;;;;;;;5079992;28;19919;-50
2022/06/08 13:06:36;;;;;;;;;;;;;;;;;;5068721;28;19905;-50
2022/06/08 13:09:02;;;;;;;;;;;;;;;;;;5068660;28;19905;-51
2022/06/08 13:11:28;;;;;;;;;;;;;;;;;;5067960;28;19908;-50
2022/06/08 13:13:55;;;;;;;;;;;;;;;;;;5074401;28;19912;-49
2022/06/08 13:16:24;;;;;;;;;;;;;;;;;;5078110;28;19961;-50
2022/06/08 13:18:50;;;;;;;;;;;;;;;;;;5073809;28;20274;-49
2022/06/08 13:21:16;;;;;;;;;;;;;;;;;;5061103;28;19916;-49
2022/06/08 13:23:42;;;;;;;;;;;;;;;;;;5075545;28;20406;-50
2022/06/08 13:26:08;;;;;;;;;;;;;;;;;;5088080;28;20006;-49
2022/06/08 13:28:34;;;;;;;;;;;;;;;;;;5082027;28;19912;-48
2022/06/08 13:31:05;;;;;;;;;;;;;;;;;;5055772;28;19909;-47
2022/06/08 13:36:16;;;;;;;;;;;;;;;;;;5068889;28;20006;-49
2022/06/08 13:38:42;;;;;;;;;;;;;;;;;;5078502;28;19916;-49
2022/06/08 13:41:08;;;;;;;;;;;;;;;;;;5081259;28;19935;-49
2022/06/08 13:43:33;;;;;;;;;;;;;;;;;;5088479;28;19920;-49
2022/06/08 13:45:59;;;;;;;;;;;;;;;;;;5082308;28;19919;-47
2022/06/08 13:48:25;;;;;;;;;;;;;;;;;;5052752;28;19959;-45
2022/06/08 13:50:51;;;;;;;;;;;;;;;;;;5048419;28;19905;-47
2022/06/08 13:53:17;;;;;;;;;;;;;;;;;;5048162;28;20003;-44
2022/06/08 13:55:43;;;;;;;;;;;;;;;;;;5048738;28;19922;-46
2022/06/08 13:58:09;;;;;;;;;;;;;;;;;;5063837;28;19965;-45
2022/06/08 14:00:36;;;;;;;;;;;;;;;;;;5068265;28;19904;-46
2022/06/08 14:03:02;;;;;;;;;;;;;;;;;;5064833;28;20383;-48
2022/06/08 14:13:45;;;;;;;;;;;;;;;;;;5060308;28;19924;-46
2022/06/08 14:16:10;;;;;;;;;;;;;;;;;;5050800;28;19913;-45
2022/06/08 14:18:36;;;;;;;;;;;;;;;;;;5049194;28;19909;-46
2022/06/08 14:21:03;;;;;;;;;;;;;;;;;;5047833;28;19911;-46
2022/06/08 14:23:29;;;;;;;;;;;;;;;;;;5064527;28;19923;-45
2022/06/08 14:25:55;;;;;;;;;;;;;;;;;;5067997;28;19908;-45
2022/06/08 14:28:21;;;;;;;;;;;;;;;;;;5066771;28;19914;-48
2022/06/08 14:30:48;;;;;;;;;;;;;;;;;;5068445;28;19915;-45
2022/06/08 14:33:14;;;;;;;;;;;;;;;;;;5067031;28;19947;-44
2022/06/08 14:35:41;;;;;;;;;;;;;;;;;;5067894;28;20013;-46
2022/06/08 14:38:07;;;;;;;;;;;;;;;;;;5067387;28;20014;-44
2022/06/08 14:40:34;;;;;;;;;;;;;;;;;;5067349;28;19991;-45
2022/06/08 14:43:00;;;;;;;;;;;;;;;;;;5065554;28;20392;-46
2022/06/08 14:45:26;;;;;;;;;;;;;;;;;;5066542;28;19911;-44
2022/06/08 14:47:52;;;;;;;;;;;;;;;;;;5067425;28;19904;-45
2022/06/08 14:50:18;;;;;;;;;;;;;;;;;;5066743;28;20398;-47
2022/06/08 14:52:45;;;;;;;;;;;;;;;;;;5066458;28;19916;-44
2022/06/08 14:56:23;;;;;;;;;;;;;;;;;;5060642;28;19918;-44
2022/06/08 14:58:00;;;;;;;;;;;;;;;;;;5061961;28;19909;-46
2022/06/08 15:00:26;;;;;;;;;;;;;;;;;;5065127;28;19912;-45
2022/06/08 15:02:53;;;;;;;;;;;;;;;;;;5060892;28;19932;-44
2022/06/08 15:05:20;;;;;;;;;;;;;;;;;;5056834;28;20053;-46
2022/06/08 15:07:50;;;;;;;;;;;;;;;;;;5068668;28;19909;-43
2022/06/08 15:10:16;;;;;;;;;;;;;;;;;;5067538;28;19962;-43
2022/06/08 15:12:41;;;;;;;;;;;;;;;;;;5068106;28;19939;-44
2022/06/08 15:15:08;;;;;;;;;;;;;;;;;;5064349;28;20461;-44
2022/06/08 15:17:34;;;;;;;;;;;;;;;;;;5071022;28;20007;-44
2022/06/08 15:20:00;;;;;;;;;;;;;;;;;;5067498;28;19908;-45
2022/06/08 15:22:26;;;;;;;;;;;;;;;;;;5065374;28;20356;-45
2022/06/08 15:24:52;;;;;;;;;;;;;;;;;;5062060;28;19947;-43
2022/06/08 15:27:18;;;;;;;;;;;;;;;;;;5053336;28;20312;-44
2022/06/08 15:29:44;;;;;;;;;;;;;;;;;;5066651;28;19969;-45
2022/06/08 15:32:10;;;;;;;;;;;;;;;;;;5080290;28;19912;-44
2022/06/08 15:34:36;;;;;;;;;;;;;;;;;;5072323;28;20002;-47
2022/06/08 15:37:02;;;;;;;;;;;;;;;;;;5068169;28;19944;-46
2022/06/08 15:39:28;;;;;;;;;;;;;;;;;;5065046;28;19914;-44
2022/06/08 15:41:53;;;;;;;;;;;;;;;;;;5058061;28;19915;-44
2022/06/08 15:44:21;;;;;;;;;;;;;;;;;;5079030;28;19919;-45
2022/06/08 15:46:48;;;;;;;;;;;;;;;;;;5065842;28;19905;-43
2022/06/08 15:49:15;;;;;;;;;;;;;;;;;;5071853;28;20512;-44
2022/06/08 15:51:41;;;;;;;;;;;;;;;;;;5051393;28;19917;-45
2022/06/08 15:54:07;;;;;;;;;;;;;;;;;;5069697;28;20409;-44
2022/06/08 15:56:33;;;;;;;;;;;;;;;;;;5070235;28;19912;-43
2022/06/08 15:58:59;;;;;;;;;;;;;;;;;;5068895;28;19908;-46
2022/06/08 16:01:26;;;;;;;;;;;;;;;;;;5082268;28;19912;-43
2022/06/08 16:03:52;;;;;;;;;;;;;;;;;;5053597;28;20372;-43
2022/06/08 16:06:18;;;;;;;;;;;;;;;;;;5063804;28;20389;-42
2022/06/08 16:08:45;;;;;;;;;;;;;;;;;;5075159;28;19911;-43
2022/06/08 16:11:11;;;;;;;;;;;;;;;;;;5066773;28;19999;-44
2022/06/08 16:13:37;;;;;;;;;;;;;;;;;;5069813;28;19943;-43
2022/06/08 16:16:03;;;;;;;;;;;;;;;;;;5069380;28;19936;-43
2022/06/08 16:18:29;;;;;;;;;;;;;;;;;;5068752;28;19908;-44
2022/06/08 16:20:55;;;;;;;;;;;;;;;;;;5071807;28;19912;-42
2022/06/08 16:23:21;;;;;;;;;;;;;;;;;;5065191;28;19935;-42
2022/06/08 16:25:48;;;;;;;;;;;;;;;;;;5060260;28;20227;-43
2022/06/08 16:28:14;;;;;;;;;;;;;;;;;;5059877;28;20311;-42
2022/06/08 16:30:40;;;;;;;;;;;;;;;;;;5068874;28;20274;-42
2022/06/08 16:33:07;;;;;;;;;;;;;;;;;;5068393;28;19904;-42
2022/06/08 16:35:33;;;;;;;;;;;;;;;;;;5061255;28;19929;-43
2022/06/08 16:37:59;;;;;;;;;;;;;;;;;;5072571;28;20313;-41
2022/06/08 16:40:25;;;;;;;;;;;;;;;;;;5088664;28;20417;-42
2022/06/08 16:42:51;;;;;;;;;;;;;;;;;;5076496;28;20375;-43
2022/06/08 16:45:17;;;;;;;;;;;;;;;;;;5067544;28;19912;-42
2022/06/08 16:47:44;;;;;;;;;;;;;;;;;;5063283;28;19909;-42
2022/06/08 16:50:11;;;;;;;;;;;;;;;;;;5080423;28;20391;-42
2022/06/08 16:52:37;;;;;;;;;;;;;;;;;;5052648;28;19909;-43
2022/06/08 16:55:03;;;;;;;;;;;;;;;;;;5084619;28;20298;-42
2022/06/08 17:00:15;;;;;;;;;;;;;;;;;;5067100;28;19954;-42
2022/06/08 17:02:41;;;;;;;;;;;;;;;;;;5067935;28;19908;-42
2022/06/08 17:05:07;;;;;;;;;;;;;;;;;;5073298;28;19920;-42